sensor_id;sensor_type;location;lat;lon;timestamp;P1;durP1;ratioP1;P2;durP2;ratioP2
18574;SDS011;9417;16.484;102.872;2023-08-06T00:00:41;21.67;;;11.32;;
18574;SDS011;9417;16.484;102.872;2023-08-06T00:02:48;18.05;;;10.85;;
18574;SDS011;9417;16.484;102.872;2023-08-06T00:04:56;22.77;;;11.32;;
18574;SDS011;9417;16.484;102.872;2023-08-06T00:07:04;18.80;;;12.13;;
18574;SDS011;9417;16.484;102.872;2023-08-06T00:09:10;16.50;;;11.00;;
18574;SDS011;9417;16.484;102.872;2023-08-06T00:11:17;18.33;;;10.60;;
18574;SDS011;9417;16.484;102.872;2023-08-06T00:13:25;23.77;;;11.57;;
18574;SDS011;9417;16.484;102.872;2023-08-06T00:15:32;17.02;;;11.50;;
18574;SDS011;9417;16.484;102.872;2023-08-06T00:17:41;19.77;;;11.55;;
18574;SDS011;9417;16.484;102.872;2023-08-06T00:19:49;15.98;;;11.35;;
18574;SDS011;9417;16.484;102.872;2023-08-06T00:21:56;21.48;;;12.00;;
18574;SDS011;9417;16.484;102.872;2023-08-06T00:24:05;18.13;;;11.40;;
18574;SDS011;9417;16.484;102.872;2023-08-06T00:26:13;18.75;;;11.25;;
18574;SDS011;9417;16.484;102.872;2023-08-06T00:28:20;21.17;;;11.30;;
18574;SDS011;9417;16.484;102.872;2023-08-06T00:30:28;20.92;;;11.43;;
18574;SDS011;9417;16.484;102.872;2023-08-06T00:32:35;19.25;;;11.55;;
18574;SDS011;9417;16.484;102.872;2023-08-06T00:34:45;16.85;;;12.15;;
18574;SDS011;9417;16.484;102.872;2023-08-06T00:36:52;19.73;;;12.10;;
18574;SDS011;9417;16.484;102.872;2023-08-06T00:39:00;18.10;;;11.00;;
18574;SDS011;9417;16.484;102.872;2023-08-06T00:41:07;18.35;;;11.57;;
18574;SDS011;9417;16.484;102.872;2023-08-06T00:43:15;18.27;;;11.70;;
18574;SDS011;9417;16.484;102.872;2023-08-06T00:45:22;18.83;;;11.80;;
18574;SDS011;9417;16.484;102.872;2023-08-06T00:47:32;19.48;;;11.57;;
18574;SDS011;9417;16.484;102.872;2023-08-06T00:49:39;18.90;;;11.95;;
18574;SDS011;9417;16.484;102.872;2023-08-06T00:51:49;16.83;;;10.73;;
18574;SDS011;9417;16.484;102.872;2023-08-06T00:53:56;17.20;;;11.57;;
18574;SDS011;9417;16.484;102.872;2023-08-06T00:56:04;17.27;;;11.02;;
18574;SDS011;9417;16.484;102.872;2023-08-06T00:58:11;20.30;;;11.73;;
18574;SDS011;9417;16.484;102.872;2023-08-06T01:00:20;15.98;;;11.23;;
18574;SDS011;9417;16.484;102.872;2023-08-06T01:02:29;20.52;;;11.57;;
18574;SDS011;9417;16.484;102.872;2023-08-06T01:04:36;18.08;;;11.55;;
18574;SDS011;9417;16.484;102.872;2023-08-06T01:06:45;18.80;;;11.90;;
18574;SDS011;9417;16.484;102.872;2023-08-06T01:09:04;21.02;;;12.82;;
18574;SDS011;9417;16.484;102.872;2023-08-06T01:11:21;21.15;;;12.00;;
18574;SDS011;9417;16.484;102.872;2023-08-06T01:13:36;17.98;;;12.30;;
18574;SDS011;9417;16.484;102.872;2023-08-06T01:15:49;17.33;;;10.80;;
18574;SDS011;9417;16.484;102.872;2023-08-06T01:18:00;20.27;;;11.63;;
18574;SDS011;9417;16.484;102.872;2023-08-06T01:20:08;27.45;;;22.45;;
18574;SDS011;9417;16.484;102.872;2023-08-06T01:22:18;17.67;;;12.02;;
18574;SDS011;9417;16.484;102.872;2023-08-06T01:24:25;15.55;;;11.50;;
18574;SDS011;9417;16.484;102.872;2023-08-06T01:26:35;23.30;;;19.33;;
18574;SDS011;9417;16.484;102.872;2023-08-06T01:28:47;20.60;;;14.70;;
18574;SDS011;9417;16.484;102.872;2023-08-06T01:31:01;19.00;;;14.15;;
18574;SDS011;9417;16.484;102.872;2023-08-06T01:33:14;17.60;;;10.13;;
18574;SDS011;9417;16.484;102.872;2023-08-06T01:35:26;14.75;;;10.63;;
18574;SDS011;9417;16.484;102.872;2023-08-06T01:37:36;15.18;;;10.82;;
18574;SDS011;9417;16.484;102.872;2023-08-06T01:39:45;18.92;;;10.40;;
18574;SDS011;9417;16.484;102.872;2023-08-06T01:41:52;13.63;;;10.43;;
18574;SDS011;9417;16.484;102.872;2023-08-06T01:43:59;19.10;;;11.35;;
18574;SDS011;9417;16.484;102.872;2023-08-06T01:46:07;17.15;;;10.23;;
18574;SDS011;9417;16.484;102.872;2023-08-06T01:48:14;16.58;;;11.25;;
18574;SDS011;9417;16.484;102.872;2023-08-06T01:50:20;14.55;;;10.23;;
18574;SDS011;9417;16.484;102.872;2023-08-06T01:52:28;15.02;;;9.85;;
18574;SDS011;9417;16.484;102.872;2023-08-06T01:54:37;15.70;;;9.57;;
18574;SDS011;9417;16.484;102.872;2023-08-06T01:56:45;14.77;;;10.05;;
18574;SDS011;9417;16.484;102.872;2023-08-06T01:58:52;17.10;;;10.00;;
18574;SDS011;9417;16.484;102.872;2023-08-06T02:01:01;15.10;;;10.15;;
18574;SDS011;9417;16.484;102.872;2023-08-06T02:03:08;15.40;;;10.23;;
18574;SDS011;9417;16.484;102.872;2023-08-06T02:05:16;18.50;;;10.35;;
18574;SDS011;9417;16.484;102.872;2023-08-06T02:07:23;14.13;;;9.50;;
18574;SDS011;9417;16.484;102.872;2023-08-06T02:09:32;14.85;;;10.02;;
18574;SDS011;9417;16.484;102.872;2023-08-06T02:11:41;15.68;;;9.50;;
18574;SDS011;9417;16.484;102.872;2023-08-06T02:13:49;17.88;;;10.27;;
18574;SDS011;9417;16.484;102.872;2023-08-06T02:15:56;16.63;;;9.20;;
18574;SDS011;9417;16.484;102.872;2023-08-06T02:18:04;17.45;;;9.18;;
18574;SDS011;9417;16.484;102.872;2023-08-06T02:20:11;18.50;;;9.20;;
18574;SDS011;9417;16.484;102.872;2023-08-06T02:22:19;20.52;;;10.48;;
18574;SDS011;9417;16.484;102.872;2023-08-06T02:24:27;16.88;;;9.85;;
18574;SDS011;9417;16.484;102.872;2023-08-06T02:26:34;16.05;;;10.20;;
18574;SDS011;9417;16.484;102.872;2023-08-06T02:28:43;14.00;;;9.68;;
18574;SDS011;9417;16.484;102.872;2023-08-06T02:30:51;15.15;;;9.40;;
18574;SDS011;9417;16.484;102.872;2023-08-06T02:32:58;17.58;;;9.77;;
18574;SDS011;9417;16.484;102.872;2023-08-06T02:35:06;14.55;;;10.02;;
18574;SDS011;9417;16.484;102.872;2023-08-06T02:37:14;12.82;;;9.63;;
18574;SDS011;9417;16.484;102.872;2023-08-06T02:39:21;15.40;;;9.38;;
18574;SDS011;9417;16.484;102.872;2023-08-06T02:41:27;14.38;;;8.98;;
18574;SDS011;9417;16.484;102.872;2023-08-06T02:43:35;14.63;;;9.80;;
18574;SDS011;9417;16.484;102.872;2023-08-06T02:45:45;14.70;;;10.02;;
18574;SDS011;9417;16.484;102.872;2023-08-06T02:47:52;14.05;;;9.35;;
18574;SDS011;9417;16.484;102.872;2023-08-06T02:50:00;13.93;;;9.55;;
18574;SDS011;9417;16.484;102.872;2023-08-06T02:52:07;13.65;;;10.27;;
18574;SDS011;9417;16.484;102.872;2023-08-06T02:54:15;13.88;;;9.98;;
18574;SDS011;9417;16.484;102.872;2023-08-06T02:56:23;18.10;;;10.57;;
18574;SDS011;9417;16.484;102.872;2023-08-06T02:58:42;19.00;;;9.90;;
18574;SDS011;9417;16.484;102.872;2023-08-06T03:01:03;13.43;;;9.73;;
18574;SDS011;9417;16.484;102.872;2023-08-06T03:03:21;17.80;;;10.40;;
18574;SDS011;9417;16.484;102.872;2023-08-06T03:07:39;12.35;;;9.50;;
18574;SDS011;9417;16.484;102.872;2023-08-06T03:09:55;16.65;;;10.13;;
18574;SDS011;9417;16.484;102.872;2023-08-06T03:12:05;14.70;;;10.13;;
18574;SDS011;9417;16.484;102.872;2023-08-06T03:14:14;21.73;;;11.07;;
18574;SDS011;9417;16.484;102.872;2023-08-06T03:16:23;14.82;;;10.20;;
18574;SDS011;9417;16.484;102.872;2023-08-06T03:18:31;16.08;;;10.18;;
18574;SDS011;9417;16.484;102.872;2023-08-06T03:20:40;14.98;;;9.77;;
18574;SDS011;9417;16.484;102.872;2023-08-06T03:22:48;19.25;;;11.27;;
18574;SDS011;9417;16.484;102.872;2023-08-06T03:24:57;16.10;;;11.02;;
18574;SDS011;9417;16.484;102.872;2023-08-06T03:27:04;17.08;;;10.95;;
18574;SDS011;9417;16.484;102.872;2023-08-06T03:29:14;17.58;;;10.52;;
18574;SDS011;9417;16.484;102.872;2023-08-06T03:31:24;13.88;;;9.95;;
18574;SDS011;9417;16.484;102.872;2023-08-06T03:33:31;16.20;;;9.85;;
18574;SDS011;9417;16.484;102.872;2023-08-06T03:35:42;14.00;;;9.55;;
18574;SDS011;9417;16.484;102.872;2023-08-06T03:37:51;15.45;;;9.93;;
18574;SDS011;9417;16.484;102.872;2023-08-06T03:39:59;15.57;;;10.07;;
18574;SDS011;9417;16.484;102.872;2023-08-06T03:42:08;16.23;;;9.98;;
18574;SDS011;9417;16.484;102.872;2023-08-06T03:44:16;26.77;;;21.02;;
18574;SDS011;9417;16.484;102.872;2023-08-06T03:46:26;22.33;;;19.35;;
18574;SDS011;9417;16.484;102.872;2023-08-06T03:48:37;19.98;;;12.95;;
18574;SDS011;9417;16.484;102.872;2023-08-06T03:50:45;20.15;;;12.52;;
18574;SDS011;9417;16.484;102.872;2023-08-06T03:52:53;13.45;;;9.05;;
18574;SDS011;9417;16.484;102.872;2023-08-06T03:55:03;15.30;;;9.40;;
18574;SDS011;9417;16.484;102.872;2023-08-06T03:57:09;15.70;;;9.10;;
18574;SDS011;9417;16.484;102.872;2023-08-06T03:59:17;13.52;;;9.55;;
18574;SDS011;9417;16.484;102.872;2023-08-06T04:01:26;16.42;;;9.70;;
18574;SDS011;9417;16.484;102.872;2023-08-06T04:03:34;14.55;;;9.40;;
18574;SDS011;9417;16.484;102.872;2023-08-06T04:05:41;14.77;;;9.27;;
18574;SDS011;9417;16.484;102.872;2023-08-06T04:07:49;16.08;;;9.55;;
18574;SDS011;9417;16.484;102.872;2023-08-06T04:09:57;15.60;;;9.90;;
18574;SDS011;9417;16.484;102.872;2023-08-06T04:12:05;14.02;;;9.45;;
18574;SDS011;9417;16.484;102.872;2023-08-06T04:14:13;14.02;;;9.45;;
18574;SDS011;9417;16.484;102.872;2023-08-06T04:16:21;18.15;;;10.10;;
18574;SDS011;9417;16.484;102.872;2023-08-06T04:18:30;13.20;;;9.10;;
18574;SDS011;9417;16.484;102.872;2023-08-06T04:20:42;15.90;;;8.82;;
18574;SDS011;9417;16.484;102.872;2023-08-06T04:22:50;13.43;;;8.68;;
18574;SDS011;9417;16.484;102.872;2023-08-06T04:24:57;17.80;;;8.88;;
18574;SDS011;9417;16.484;102.872;2023-08-06T04:27:05;15.82;;;8.50;;
18574;SDS011;9417;16.484;102.872;2023-08-06T04:29:13;15.43;;;9.07;;
18574;SDS011;9417;16.484;102.872;2023-08-06T04:31:20;16.52;;;9.00;;
18574;SDS011;9417;16.484;102.872;2023-08-06T04:33:30;19.20;;;9.05;;
18574;SDS011;9417;16.484;102.872;2023-08-06T04:35:42;14.43;;;8.82;;
18574;SDS011;9417;16.484;102.872;2023-08-06T04:37:50;17.42;;;9.40;;
18574;SDS011;9417;16.484;102.872;2023-08-06T04:39:57;25.23;;;21.52;;
18574;SDS011;9417;16.484;102.872;2023-08-06T04:42:05;18.40;;;12.43;;
18574;SDS011;9417;16.484;102.872;2023-08-06T04:44:11;12.75;;;8.32;;
18574;SDS011;9417;16.484;102.872;2023-08-06T04:46:19;12.45;;;8.32;;
18574;SDS011;9417;16.484;102.872;2023-08-06T04:48:26;16.58;;;8.63;;
18574;SDS011;9417;16.484;102.872;2023-08-06T04:50:35;13.55;;;8.48;;
18574;SDS011;9417;16.484;102.872;2023-08-06T04:52:43;14.60;;;9.15;;
18574;SDS011;9417;16.484;102.872;2023-08-06T04:54:50;15.77;;;8.73;;
18574;SDS011;9417;16.484;102.872;2023-08-06T04:56:57;16.75;;;8.85;;
18574;SDS011;9417;16.484;102.872;2023-08-06T04:59:05;12.93;;;8.40;;
18574;SDS011;9417;16.484;102.872;2023-08-06T05:01:12;11.95;;;8.00;;
18574;SDS011;9417;16.484;102.872;2023-08-06T05:03:20;17.70;;;8.60;;
18574;SDS011;9417;16.484;102.872;2023-08-06T05:05:27;13.68;;;8.65;;
18574;SDS011;9417;16.484;102.872;2023-08-06T05:07:37;15.50;;;8.77;;
18574;SDS011;9417;16.484;102.872;2023-08-06T05:09:44;13.45;;;8.10;;
18574;SDS011;9417;16.484;102.872;2023-08-06T05:11:52;15.48;;;8.15;;
18574;SDS011;9417;16.484;102.872;2023-08-06T05:13:59;16.52;;;9.02;;
18574;SDS011;9417;16.484;102.872;2023-08-06T05:16:07;15.15;;;8.75;;
18574;SDS011;9417;16.484;102.872;2023-08-06T05:18:14;11.20;;;7.75;;
18574;SDS011;9417;16.484;102.872;2023-08-06T05:20:22;13.27;;;8.43;;
18574;SDS011;9417;16.484;102.872;2023-08-06T05:22:29;16.15;;;9.10;;
18574;SDS011;9417;16.484;102.872;2023-08-06T05:24:38;19.70;;;10.45;;
18574;SDS011;9417;16.484;102.872;2023-08-06T05:26:45;14.07;;;9.20;;
18574;SDS011;9417;16.484;102.872;2023-08-06T05:28:53;16.77;;;9.38;;
18574;SDS011;9417;16.484;102.872;2023-08-06T05:31:03;15.57;;;10.15;;
18574;SDS011;9417;16.484;102.872;2023-08-06T05:33:10;14.32;;;9.23;;
18574;SDS011;9417;16.484;102.872;2023-08-06T05:35:18;16.33;;;9.52;;
18574;SDS011;9417;16.484;102.872;2023-08-06T05:37:25;13.48;;;8.52;;
18574;SDS011;9417;16.484;102.872;2023-08-06T05:39:32;14.50;;;9.02;;
18574;SDS011;9417;16.484;102.872;2023-08-06T05:41:42;17.27;;;9.60;;
18574;SDS011;9417;16.484;102.872;2023-08-06T05:43:50;17.30;;;9.35;;
18574;SDS011;9417;16.484;102.872;2023-08-06T05:45:57;15.82;;;8.77;;
18574;SDS011;9417;16.484;102.872;2023-08-06T05:48:04;14.90;;;8.43;;
18574;SDS011;9417;16.484;102.872;2023-08-06T05:50:12;14.85;;;9.18;;
18574;SDS011;9417;16.484;102.872;2023-08-06T05:52:20;13.52;;;8.27;;
18574;SDS011;9417;16.484;102.872;2023-08-06T05:54:27;13.38;;;8.25;;
18574;SDS011;9417;16.484;102.872;2023-08-06T05:56:35;14.25;;;7.88;;
18574;SDS011;9417;16.484;102.872;2023-08-06T05:58:44;11.85;;;8.23;;
18574;SDS011;9417;16.484;102.872;2023-08-06T06:00:54;15.77;;;9.20;;
18574;SDS011;9417;16.484;102.872;2023-08-06T06:03:01;17.80;;;9.75;;
18574;SDS011;9417;16.484;102.872;2023-08-06T06:05:09;15.13;;;9.30;;
18574;SDS011;9417;16.484;102.872;2023-08-06T06:07:16;14.70;;;9.30;;
18574;SDS011;9417;16.484;102.872;2023-08-06T06:09:24;16.70;;;8.77;;
18574;SDS011;9417;16.484;102.872;2023-08-06T06:11:31;18.15;;;9.23;;
18574;SDS011;9417;16.484;102.872;2023-08-06T06:13:39;16.08;;;8.63;;
18574;SDS011;9417;16.484;102.872;2023-08-06T06:15:48;14.68;;;8.13;;
18574;SDS011;9417;16.484;102.872;2023-08-06T06:17:55;24.48;;;8.55;;
18574;SDS011;9417;16.484;102.872;2023-08-06T06:20:03;15.05;;;7.85;;
18574;SDS011;9417;16.484;102.872;2023-08-06T06:22:11;16.00;;;8.43;;
18574;SDS011;9417;16.484;102.872;2023-08-06T06:24:18;18.00;;;8.30;;
18574;SDS011;9417;16.484;102.872;2023-08-06T06:26:26;17.23;;;8.73;;
18574;SDS011;9417;16.484;102.872;2023-08-06T06:28:34;18.10;;;8.32;;
18574;SDS011;9417;16.484;102.872;2023-08-06T06:30:41;16.33;;;8.50;;
18574;SDS011;9417;16.484;102.872;2023-08-06T06:32:51;15.65;;;8.35;;
18574;SDS011;9417;16.484;102.872;2023-08-06T06:34:58;12.82;;;9.05;;
18574;SDS011;9417;16.484;102.872;2023-08-06T06:37:06;14.77;;;8.90;;
18574;SDS011;9417;16.484;102.872;2023-08-06T06:39:14;16.15;;;8.38;;
18574;SDS011;9417;16.484;102.872;2023-08-06T06:41:21;18.35;;;8.23;;
18574;SDS011;9417;16.484;102.872;2023-08-06T06:43:37;17.20;;;8.40;;
18574;SDS011;9417;16.484;102.872;2023-08-06T06:45:45;12.32;;;8.00;;
18574;SDS011;9417;16.484;102.872;2023-08-06T06:47:54;16.85;;;8.20;;
18574;SDS011;9417;16.484;102.872;2023-08-06T06:50:02;13.63;;;7.97;;
18574;SDS011;9417;16.484;102.872;2023-08-06T06:52:10;11.85;;;8.93;;
18574;SDS011;9417;16.484;102.872;2023-08-06T06:54:17;18.55;;;9.35;;
18574;SDS011;9417;16.484;102.872;2023-08-06T06:56:24;15.35;;;8.20;;
18574;SDS011;9417;16.484;102.872;2023-08-06T06:58:32;16.08;;;9.35;;
18574;SDS011;9417;16.484;102.872;2023-08-06T07:00:40;18.45;;;9.40;;
18574;SDS011;9417;16.484;102.872;2023-08-06T07:02:48;15.50;;;8.63;;
18574;SDS011;9417;16.484;102.872;2023-08-06T07:04:57;16.67;;;9.02;;
18574;SDS011;9417;16.484;102.872;2023-08-06T07:07:05;18.17;;;8.25;;
18574;SDS011;9417;16.484;102.872;2023-08-06T07:09:12;13.82;;;7.97;;
18574;SDS011;9417;16.484;102.872;2023-08-06T07:11:20;12.95;;;8.88;;
18574;SDS011;9417;16.484;102.872;2023-08-06T07:13:27;14.45;;;8.73;;
18574;SDS011;9417;16.484;102.872;2023-08-06T07:15:35;16.83;;;9.18;;
18574;SDS011;9417;16.484;102.872;2023-08-06T07:17:42;14.40;;;8.00;;
18574;SDS011;9417;16.484;102.872;2023-08-06T07:19:49;14.82;;;8.40;;
18574;SDS011;9417;16.484;102.872;2023-08-06T07:21:58;16.33;;;8.57;;
18574;SDS011;9417;16.484;102.872;2023-08-06T07:24:06;13.88;;;8.40;;
18574;SDS011;9417;16.484;102.872;2023-08-06T07:26:14;35.78;;;20.00;;
18574;SDS011;9417;16.484;102.872;2023-08-06T07:28:22;29.25;;;18.17;;
18574;SDS011;9417;16.484;102.872;2023-08-06T07:30:29;25.20;;;12.80;;
18574;SDS011;9417;16.484;102.872;2023-08-06T07:32:38;20.92;;;12.20;;
18574;SDS011;9417;16.484;102.872;2023-08-06T07:34:45;23.98;;;12.82;;
18574;SDS011;9417;16.484;102.872;2023-08-06T07:36:52;15.15;;;9.73;;
18574;SDS011;9417;16.484;102.872;2023-08-06T07:39:01;12.32;;;8.10;;
18574;SDS011;9417;16.484;102.872;2023-08-06T07:41:10;19.15;;;9.40;;
18574;SDS011;9417;16.484;102.872;2023-08-06T07:43:17;17.17;;;8.75;;
18574;SDS011;9417;16.484;102.872;2023-08-06T07:45:25;16.90;;;8.65;;
18574;SDS011;9417;16.484;102.872;2023-08-06T07:47:32;18.05;;;8.77;;
18574;SDS011;9417;16.484;102.872;2023-08-06T07:49:40;19.98;;;10.30;;
18574;SDS011;9417;16.484;102.872;2023-08-06T07:51:47;16.02;;;9.60;;
18574;SDS011;9417;16.484;102.872;2023-08-06T07:53:55;18.38;;;9.90;;
18574;SDS011;9417;16.484;102.872;2023-08-06T07:56:04;15.48;;;8.90;;
18574;SDS011;9417;16.484;102.872;2023-08-06T07:58:12;11.07;;;8.07;;
18574;SDS011;9417;16.484;102.872;2023-08-06T08:00:19;18.15;;;9.93;;
18574;SDS011;9417;16.484;102.872;2023-08-06T08:02:27;16.48;;;8.93;;
18574;SDS011;9417;16.484;102.872;2023-08-06T08:04:35;14.48;;;8.35;;
18574;SDS011;9417;16.484;102.872;2023-08-06T08:06:43;15.98;;;8.90;;
18574;SDS011;9417;16.484;102.872;2023-08-06T08:08:51;16.85;;;9.05;;
18574;SDS011;9417;16.484;102.872;2023-08-06T08:10:58;16.73;;;8.75;;
18574;SDS011;9417;16.484;102.872;2023-08-06T08:13:07;18.05;;;8.38;;
18574;SDS011;9417;16.484;102.872;2023-08-06T08:15:15;15.23;;;8.15;;
18574;SDS011;9417;16.484;102.872;2023-08-06T08:17:22;17.00;;;9.32;;
18574;SDS011;9417;16.484;102.872;2023-08-06T08:19:29;17.90;;;8.90;;
18574;SDS011;9417;16.484;102.872;2023-08-06T08:21:37;16.10;;;8.70;;
18574;SDS011;9417;16.484;102.872;2023-08-06T08:23:44;12.93;;;7.85;;
18574;SDS011;9417;16.484;102.872;2023-08-06T08:25:52;18.38;;;8.32;;
18574;SDS011;9417;16.484;102.872;2023-08-06T08:27:59;16.30;;;8.63;;
18574;SDS011;9417;16.484;102.872;2023-08-06T08:30:09;18.38;;;9.15;;
18574;SDS011;9417;16.484;102.872;2023-08-06T08:32:16;14.85;;;8.73;;
18574;SDS011;9417;16.484;102.872;2023-08-06T08:34:24;13.38;;;8.98;;
18574;SDS011;9417;16.484;102.872;2023-08-06T08:36:31;16.77;;;9.35;;
18574;SDS011;9417;16.484;102.872;2023-08-06T08:38:39;19.20;;;9.52;;
18574;SDS011;9417;16.484;102.872;2023-08-06T08:40:47;14.18;;;8.65;;
18574;SDS011;9417;16.484;102.872;2023-08-06T08:42:57;16.92;;;8.95;;
18574;SDS011;9417;16.484;102.872;2023-08-06T08:45:10;17.63;;;8.98;;
18574;SDS011;9417;16.484;102.872;2023-08-06T08:47:19;17.17;;;8.90;;
18574;SDS011;9417;16.484;102.872;2023-08-06T08:49:26;15.27;;;9.40;;
18574;SDS011;9417;16.484;102.872;2023-08-06T08:51:35;15.73;;;8.95;;
18574;SDS011;9417;16.484;102.872;2023-08-06T08:53:43;16.23;;;10.40;;
18574;SDS011;9417;16.484;102.872;2023-08-06T08:55:51;21.17;;;10.50;;
18574;SDS011;9417;16.484;102.872;2023-08-06T08:58:00;15.13;;;9.07;;
18574;SDS011;9417;16.484;102.872;2023-08-06T09:00:09;18.17;;;9.20;;
18574;SDS011;9417;16.484;102.872;2023-08-06T09:02:18;13.02;;;8.98;;
18574;SDS011;9417;16.484;102.872;2023-08-06T09:04:29;19.05;;;9.55;;
18574;SDS011;9417;16.484;102.872;2023-08-06T09:06:38;14.93;;;8.73;;
18574;SDS011;9417;16.484;102.872;2023-08-06T09:08:50;19.02;;;9.40;;
18574;SDS011;9417;16.484;102.872;2023-08-06T09:11:03;16.65;;;9.15;;
18574;SDS011;9417;16.484;102.872;2023-08-06T09:13:15;19.75;;;9.77;;
18574;SDS011;9417;16.484;102.872;2023-08-06T09:15:25;17.20;;;9.48;;
18574;SDS011;9417;16.484;102.872;2023-08-06T09:17:34;16.23;;;9.32;;
18574;SDS011;9417;16.484;102.872;2023-08-06T09:19:42;14.52;;;9.23;;
18574;SDS011;9417;16.484;102.872;2023-08-06T09:21:51;18.40;;;10.02;;
18574;SDS011;9417;16.484;102.872;2023-08-06T09:23:59;18.33;;;10.43;;
18574;SDS011;9417;16.484;102.872;2023-08-06T09:26:07;16.00;;;10.07;;
18574;SDS011;9417;16.484;102.872;2023-08-06T09:28:19;21.05;;;13.05;;
18574;SDS011;9417;16.484;102.872;2023-08-06T09:30:33;21.13;;;12.15;;
18574;SDS011;9417;16.484;102.872;2023-08-06T09:32:47;22.65;;;13.32;;
18574;SDS011;9417;16.484;102.872;2023-08-06T09:34:56;21.98;;;11.80;;
18574;SDS011;9417;16.484;102.872;2023-08-06T09:37:04;23.38;;;17.67;;
18574;SDS011;9417;16.484;102.872;2023-08-06T09:39:14;23.33;;;16.33;;
18574;SDS011;9417;16.484;102.872;2023-08-06T09:41:28;17.67;;;12.20;;
18574;SDS011;9417;16.484;102.872;2023-08-06T09:43:41;16.23;;;10.68;;
18574;SDS011;9417;16.484;102.872;2023-08-06T09:45:51;16.98;;;10.73;;
18574;SDS011;9417;16.484;102.872;2023-08-06T09:47:57;18.20;;;10.80;;
18574;SDS011;9417;16.484;102.872;2023-08-06T09:50:05;20.05;;;10.30;;
18574;SDS011;9417;16.484;102.872;2023-08-06T09:52:20;20.75;;;10.15;;
18574;SDS011;9417;16.484;102.872;2023-08-06T09:54:28;17.52;;;10.38;;
18574;SDS011;9417;16.484;102.872;2023-08-06T09:56:36;16.55;;;11.02;;
18574;SDS011;9417;16.484;102.872;2023-08-06T09:58:44;21.88;;;11.13;;
18574;SDS011;9417;16.484;102.872;2023-08-06T10:00:56;18.13;;;11.38;;
18574;SDS011;9417;16.484;102.872;2023-08-06T10:03:04;25.45;;;13.57;;
18574;SDS011;9417;16.484;102.872;2023-08-06T10:05:13;22.95;;;14.35;;
18574;SDS011;9417;16.484;102.872;2023-08-06T10:07:22;25.02;;;14.65;;
18574;SDS011;9417;16.484;102.872;2023-08-06T10:09:29;21.55;;;13.27;;
18574;SDS011;9417;16.484;102.872;2023-08-06T10:11:37;23.67;;;13.02;;
18574;SDS011;9417;16.484;102.872;2023-08-06T10:13:45;22.67;;;13.27;;
18574;SDS011;9417;16.484;102.872;2023-08-06T10:15:52;22.52;;;13.63;;
18574;SDS011;9417;16.484;102.872;2023-08-06T10:18:02;22.90;;;12.68;;
18574;SDS011;9417;16.484;102.872;2023-08-06T10:20:11;21.75;;;12.88;;
18574;SDS011;9417;16.484;102.872;2023-08-06T10:22:19;21.10;;;12.90;;
18574;SDS011;9417;16.484;102.872;2023-08-06T10:24:26;20.63;;;11.88;;
18574;SDS011;9417;16.484;102.872;2023-08-06T10:26:51;19.92;;;12.40;;
18574;SDS011;9417;16.484;102.872;2023-08-06T10:31:53;17.98;;;11.63;;
18574;SDS011;9417;16.484;102.872;2023-08-06T10:34:04;19.63;;;11.55;;
18574;SDS011;9417;16.484;102.872;2023-08-06T10:36:11;17.15;;;11.40;;
18574;SDS011;9417;16.484;102.872;2023-08-06T10:38:19;24.27;;;12.40;;
18574;SDS011;9417;16.484;102.872;2023-08-06T10:40:29;20.08;;;10.85;;
18574;SDS011;9417;16.484;102.872;2023-08-06T10:42:36;22.05;;;11.95;;
18574;SDS011;9417;16.484;102.872;2023-08-06T10:47:26;19.75;;;11.85;;
18574;SDS011;9417;16.484;102.872;2023-08-06T10:49:35;17.75;;;11.45;;
18574;SDS011;9417;16.484;102.872;2023-08-06T10:51:43;23.77;;;12.43;;
18574;SDS011;9417;16.484;102.872;2023-08-06T10:53:51;21.75;;;11.63;;
18574;SDS011;9417;16.484;102.872;2023-08-06T10:55:59;16.88;;;11.20;;
18574;SDS011;9417;16.484;102.872;2023-08-06T10:58:07;19.17;;;12.05;;
18574;SDS011;9417;16.484;102.872;2023-08-06T11:00:14;33.13;;;24.10;;
18574;SDS011;9417;16.484;102.872;2023-08-06T11:02:20;29.30;;;24.52;;
18574;SDS011;9417;16.484;102.872;2023-08-06T11:04:30;18.52;;;12.05;;
18574;SDS011;9417;16.484;102.872;2023-08-06T11:06:39;19.30;;;11.52;;
18574;SDS011;9417;16.484;102.872;2023-08-06T11:08:50;18.35;;;12.27;;
18574;SDS011;9417;16.484;102.872;2023-08-06T11:11:07;25.08;;;13.18;;
18574;SDS011;9417;16.484;102.872;2023-08-06T11:13:16;20.40;;;12.38;;
18574;SDS011;9417;16.484;102.872;2023-08-06T11:15:24;25.98;;;13.55;;
18574;SDS011;9417;16.484;102.872;2023-08-06T11:17:32;21.45;;;12.90;;
18574;SDS011;9417;16.484;102.872;2023-08-06T11:19:41;22.75;;;12.73;;
18574;SDS011;9417;16.484;102.872;2023-08-06T11:21:51;20.08;;;12.52;;
18574;SDS011;9417;16.484;102.872;2023-08-06T11:23:58;22.58;;;12.80;;
18574;SDS011;9417;16.484;102.872;2023-08-06T11:26:07;20.48;;;13.10;;
18574;SDS011;9417;16.484;102.872;2023-08-06T11:28:18;21.73;;;13.43;;
18574;SDS011;9417;16.484;102.872;2023-08-06T11:30:27;20.05;;;13.48;;
18574;SDS011;9417;16.484;102.872;2023-08-06T11:32:44;21.67;;;13.57;;
18574;SDS011;9417;16.484;102.872;2023-08-06T11:34:52;23.13;;;15.27;;
18574;SDS011;9417;16.484;102.872;2023-08-06T11:37:02;22.85;;;13.93;;
18574;SDS011;9417;16.484;102.872;2023-08-06T11:39:10;20.08;;;13.50;;
18574;SDS011;9417;16.484;102.872;2023-08-06T11:41:18;21.40;;;13.57;;
18574;SDS011;9417;16.484;102.872;2023-08-06T11:43:26;21.80;;;13.93;;
18574;SDS011;9417;16.484;102.872;2023-08-06T11:45:37;27.77;;;14.52;;
18574;SDS011;9417;16.484;102.872;2023-08-06T11:47:49;23.88;;;14.02;;
18574;SDS011;9417;16.484;102.872;2023-08-06T11:49:57;23.83;;;14.60;;
18574;SDS011;9417;16.484;102.872;2023-08-06T11:52:16;23.48;;;14.82;;
18574;SDS011;9417;16.484;102.872;2023-08-06T11:54:30;19.63;;;14.30;;
18574;SDS011;9417;16.484;102.872;2023-08-06T11:56:37;23.10;;;14.98;;
18574;SDS011;9417;16.484;102.872;2023-08-06T11:58:44;20.05;;;13.75;;
18574;SDS011;9417;16.484;102.872;2023-08-06T12:00:52;25.83;;;14.45;;
18574;SDS011;9417;16.484;102.872;2023-08-06T12:03:00;26.58;;;15.05;;
18574;SDS011;9417;16.484;102.872;2023-08-06T12:05:10;20.95;;;14.75;;
18574;SDS011;9417;16.484;102.872;2023-08-06T12:07:21;26.15;;;15.63;;
18574;SDS011;9417;16.484;102.872;2023-08-06T12:09:34;24.63;;;15.32;;
18574;SDS011;9417;16.484;102.872;2023-08-06T12:11:41;24.73;;;15.13;;
18574;SDS011;9417;16.484;102.872;2023-08-06T12:13:50;26.77;;;15.63;;
18574;SDS011;9417;16.484;102.872;2023-08-06T12:15:58;31.13;;;15.15;;
18574;SDS011;9417;16.484;102.872;2023-08-06T12:18:05;26.75;;;15.43;;
18574;SDS011;9417;16.484;102.872;2023-08-06T12:20:13;27.17;;;16.98;;
18574;SDS011;9417;16.484;102.872;2023-08-06T12:22:23;29.50;;;15.75;;
18574;SDS011;9417;16.484;102.872;2023-08-06T12:24:31;28.52;;;17.35;;
18574;SDS011;9417;16.484;102.872;2023-08-06T12:26:56;29.65;;;17.10;;
18574;SDS011;9417;16.484;102.872;2023-08-06T12:29:05;29.00;;;17.50;;
18574;SDS011;9417;16.484;102.872;2023-08-06T12:31:13;26.17;;;17.25;;
18574;SDS011;9417;16.484;102.872;2023-08-06T12:33:20;27.48;;;17.00;;
18574;SDS011;9417;16.484;102.872;2023-08-06T12:35:28;29.58;;;18.42;;